createdAt,value
2023-04-06T00:03:36.259Z,3.07
2023-04-06T00:13:38.882Z,3.20
2023-04-06T00:23:41.506Z,3.37
2023-04-06T00:33:43.632Z,3.33
2023-04-06T00:43:48.048Z,3.70
2023-04-06T00:53:50.953Z,3.27
2023-04-06T01:03:53.903Z,3.23
2023-04-06T01:13:59.379Z,3.00
2023-04-06T01:24:16.720Z,3.47
2023-04-06T01:34:40.571Z,3.40
2023-04-06T01:44:45.255Z,2.97
2023-04-06T01:54:52.318Z,2.93
2023-04-06T02:05:20.726Z,3.43
2023-04-06T02:15:26.475Z,4.27
2023-04-06T02:25:30.649Z,4.63
2023-04-06T02:35:33.353Z,4.70
2023-04-06T02:45:38.275Z,4.20
2023-04-06T02:55:45.340Z,4.20
2023-04-06T03:05:50.322Z,4.10
2023-04-06T03:15:58.945Z,5.10
2023-04-06T03:26:04.169Z,4.27
2023-04-06T03:36:09.139Z,6.10
2023-04-06T03:46:18.500Z,5.20
2023-04-06T03:56:21.561Z,5.20
2023-04-06T04:06:26.542Z,5.37
2023-04-06T04:16:28.864Z,5.70
2023-04-06T04:26:32.757Z,6.10
2023-04-06T04:36:35.114Z,5.57
2023-04-06T04:46:46.198Z,5.13
2023-04-06T04:56:53.528Z,5.63
2023-04-06T05:07:19.977Z,4.73
2023-04-06T05:17:23.010Z,4.90
2023-04-06T05:27:26.538Z,3.90
2023-04-06T05:37:30.064Z,3.93
2023-04-06T05:47:33.803Z,4.17
2023-04-06T05:57:47.448Z,4.43
2023-04-06T06:07:57.392Z,4.57
2023-04-06T06:18:03.312Z,4.67
2023-04-06T06:28:10.508Z,2.60
2023-04-06T06:38:14.095Z,2.70
2023-04-06T06:48:17.581Z,3.27
2023-04-06T06:58:24.654Z,2.23
2023-04-06T07:08:27.434Z,2.17
2023-04-06T07:18:34.118Z,2.90
2023-04-06T07:28:37.969Z,2.67
2023-04-06T07:38:47.304Z,2.67
2023-04-06T07:48:51.236Z,2.10
2023-04-06T07:58:56.789Z,2.60
2023-04-06T08:09:03.894Z,2.50
2023-04-06T08:19:10.553Z,2.10
2023-04-06T08:29:12.821Z,1.80
2023-04-06T08:39:17.964Z,3.10
2023-04-06T08:49:22.959Z,2.23
2023-04-06T08:59:26.767Z,2.90
2023-04-06T09:09:33.802Z,2.57
2023-04-06T09:19:48.253Z,4.07
2023-04-06T09:30:04.044Z,2.60
2023-04-06T09:40:08.626Z,3.67
2023-04-06T09:50:15.174Z,5.07
2023-04-06T10:00:20.493Z,5.50
2023-04-06T10:10:32.765Z,4.27
2023-04-06T10:20:57.423Z,3.20
2023-04-06T10:31:01.318Z,3.63
2023-04-06T10:41:07.774Z,4.13
2023-04-06T10:51:18.085Z,2.97
2023-04-06T11:01:26.045Z,3.37
2023-04-06T11:11:30.459Z,2.83
2023-04-06T11:21:40.869Z,3.50
2023-04-06T11:31:53.981Z,4.20
2023-04-06T11:41:59.392Z,5.03
2023-04-06T11:52:18.607Z,3.90
2023-04-06T12:02:22.403Z,5.20
2023-04-06T12:12:24.621Z,4.40
2023-04-06T12:22:32.337Z,5.00
2023-04-06T12:32:39.545Z,4.63
2023-04-06T12:42:42.913Z,4.27
2023-04-06T12:52:50.009Z,5.10
2023-04-06T13:02:55.262Z,3.37
2023-04-06T13:12:58.481Z,3.77
2023-04-06T13:23:05.633Z,6.10
2023-04-06T13:33:08.040Z,3.57
2023-04-06T13:43:13.003Z,4.80
2023-04-06T13:53:20.140Z,3.63
2023-04-06T14:03:23.811Z,5.40
2023-04-06T14:13:31.792Z,5.50
2023-04-06T14:23:38.168Z,5.33
2023-04-06T14:33:44.388Z,6.23
2023-04-06T14:43:48.892Z,5.23
2023-04-06T14:53:51.289Z,5.33
2023-04-06T15:03:53.560Z,5.50
2023-04-06T15:13:58.150Z,5.17
2023-04-06T15:24:03.149Z,5.57
2023-04-06T15:34:09.496Z,4.97
2023-04-06T15:44:17.647Z,4.97
2023-04-06T15:54:25.613Z,5.97
2023-04-06T16:04:28.491Z,5.90
2023-04-06T16:14:32.877Z,4.60
2023-04-06T16:24:37.607Z,5.23
2023-04-06T16:34:40.099Z,6.07
2023-04-06T16:44:44.519Z,5.07
2023-04-06T16:54:47.010Z,6.00
2023-04-06T17:04:50.750Z,6.07
2023-04-06T17:14:53.392Z,6.10
2023-04-06T17:24:56.309Z,5.53
2023-04-06T17:35:01.299Z,6.27
2023-04-06T17:45:08.641Z,5.73
2023-04-06T17:55:13.165Z,6.30
2023-04-06T18:05:16.646Z,7.80
2023-04-06T18:15:18.876Z,7.77
2023-04-06T18:25:25.890Z,4.80
2023-04-06T18:35:28.184Z,7.57
2023-04-06T18:45:35.561Z,8.27
2023-04-06T18:55:40.620Z,6.47
2023-04-06T19:05:47.698Z,7.77
2023-04-06T19:15:57.949Z,7.67
2023-04-06T19:26:01.199Z,5.10
2023-04-06T19:36:07.297Z,7.00
2023-04-06T19:46:11.920Z,7.63
2023-04-06T19:56:24.553Z,8.20
2023-04-06T20:06:26.948Z,6.13
2023-04-06T20:16:29.279Z,7.20
2023-04-06T20:26:31.537Z,7.50
2023-04-06T20:36:37.207Z,8.57
2023-04-06T20:46:46.072Z,9.37
2023-04-06T20:57:02.897Z,9.67
2023-04-06T21:07:08.823Z,10.43
2023-04-06T21:17:12.358Z,10.53
2023-04-06T21:27:19.386Z,12.30
2023-04-06T21:37:27.483Z,14.03
2023-04-06T21:47:35.169Z,12.33
2023-04-06T21:57:39.988Z,13.63
2023-04-06T22:07:44.415Z,13.93
2023-04-06T22:17:46.856Z,12.47
2023-04-06T22:27:56.672Z,14.47
2023-04-06T22:38:03.434Z,15.63
2023-04-06T22:48:08.321Z,14.23
2023-04-06T22:58:11.662Z,14.40
2023-04-06T23:08:16.811Z,13.10
2023-04-06T23:18:21.842Z,11.33
2023-04-06T23:28:24.046Z,14.33
2023-04-06T23:38:27.271Z,15.60
2023-04-06T23:48:36.808Z,16.73
2023-04-06T23:58:41.972Z,17.57
